Time;durP1;ratioP1;P1;durP2;ratioP2;P2;SDS_P1;SDS_P2;PMS_P1;PMS_P2;Temp;Humidity;BMP_temperature;BMP_pressure;BME280_temperature;BME280_humidity;BME280_pressure;Samples;Min_cycle;Max_cycle;Signal;HPM_P1;HPM_P2
2021/01/29 00:01:20;;;;;;;2.40;2.20;;;18.20;53.30;;;;;;5084934;28;20178;-55
2021/01/29 00:03:45;;;;;;;2.15;2.05;;;18.20;53.30;;;;;;5084886;28;20174;-51
2021/01/29 00:06:11;;;;;;;2.55;1.75;;;18.10;53.20;;;;;;5084805;28;20227;-54
2021/01/29 00:08:36;;;;;;;1.70;1.60;;;18.10;53.20;;;;;;5084744;28;20192;-48
2021/01/29 00:11:02;;;;;;;1.73;1.63;;;18.10;53.20;;;;;;5084832;28;20204;-54
2021/01/29 00:13:28;;;;;;;2.28;2.08;;;18.10;53.30;;;;;;5084815;28;20548;-51
2021/01/29 00:15:54;;;;;;;2.05;1.80;;;18.00;53.20;;;;;;5066657;28;20578;-52
2021/01/29 00:18:20;;;;;;;2.22;1.70;;;18.00;53.20;;;;;;5066264;28;20185;-53
2021/01/29 00:20:45;;;;;;;1.83;1.60;;;18.00;53.20;;;;;;5084768;28;20251;-53
2021/01/29 00:23:11;;;;;;;1.92;1.83;;;18.00;53.20;;;;;;5084742;28;20173;-51
2021/01/29 00:25:38;;;;;;;2.30;1.67;;;18.00;53.20;;;;;;5084577;28;20231;-50
2021/01/29 00:28:08;;;;;;;2.55;1.85;;;18.00;53.20;;;;;;5084534;28;20213;-51
2021/01/29 00:30:34;;;;;;;1.88;1.77;;;17.90;53.10;;;;;;5084607;28;20447;-51
2021/01/29 00:33:00;;;;;;;1.63;1.52;;;17.90;53.20;;;;;;5084186;28;20178;-55
2021/01/29 00:35:27;;;;;;;1.65;1.55;;;17.90;53.20;;;;;;5084545;28;20196;-49
2021/01/29 00:37:53;;;;;;;2.40;1.98;;;17.90;53.10;;;;;;5084327;28;20897;-53
2021/01/29 00:40:19;;;;;;;1.70;1.60;;;17.80;53.10;;;;;;5084329;28;20177;-54
2021/01/29 00:42:45;;;;;;;2.00;1.90;;;17.80;53.10;;;;;;5084427;28;20524;-56
2021/01/29 00:45:11;;;;;;;2.28;2.08;;;17.80;53.10;;;;;;5084502;28;20170;-56
2021/01/29 00:47:37;;;;;;;2.15;1.95;;;17.80;53.10;;;;;;5084019;28;20185;-52
2021/01/29 00:50:04;;;;;;;2.28;1.95;;;17.80;53.10;;;;;;5083940;28;20599;-51
2021/01/29 00:52:29;;;;;;;1.88;1.77;;;17.80;53.10;;;;;;5084014;28;20270;-52
2021/01/29 00:54:55;;;;;;;2.28;1.95;;;17.70;53.10;;;;;;5084458;28;20262;-54
2021/01/29 00:57:20;;;;;;;1.95;1.85;;;17.70;53.10;;;;;;5084101;28;20261;-51
2021/01/29 00:59:46;;;;;;;1.98;1.88;;;17.70;53.10;;;;;;5084067;28;20185;-48
2021/01/29 01:02:12;;;;;;;2.60;2.03;;;17.70;53.10;;;;;;5084023;28;20181;-50
2021/01/29 01:04:37;;;;;;;2.50;2.30;;;17.70;53.00;;;;;;5084216;28;20173;-51
2021/01/29 01:07:03;;;;;;;1.83;1.73;;;17.70;53.00;;;;;;5083861;28;20178;-49
2021/01/29 01:09:28;;;;;;;2.58;2.38;;;17.70;53.10;;;;;;5083888;28;20284;-51
2021/01/29 01:11:54;;;;;;;2.17;2.05;;;17.60;53.00;;;;;;5083682;28;20568;-51
2021/01/29 01:14:19;;;;;;;2.58;2.38;;;17.60;53.00;;;;;;5084016;28;20170;-54
2021/01/29 01:16:45;;;;;;;2.10;1.98;;;17.70;53.00;;;;;;5084143;28;20173;-54
2021/01/29 01:19:11;;;;;;;2.65;2.00;;;17.60;53.00;;;;;;5083746;28;20260;-55
2021/01/29 01:21:36;;;;;;;2.38;2.17;;;17.60;53.00;;;;;;5083770;28;20199;-51
2021/01/29 01:24:03;;;;;;;2.47;2.28;;;17.60;53.00;;;;;;5084012;28;20170;-54
2021/01/29 01:26:28;;;;;;;2.42;2.28;;;17.60;53.00;;;;;;5083987;28;20219;-53
2021/01/29 01:28:54;;;;;;;2.92;2.72;;;17.60;53.00;;;;;;5083643;28;20193;-52
2021/01/29 01:31:19;;;;;;;2.53;2.33;;;17.60;53.00;;;;;;5083954;28;20575;-54
2021/01/29 01:33:45;;;;;;;2.33;2.20;;;17.60;53.00;;;;;;5084062;28;20212;-56
2021/01/29 01:36:13;;;;;;;2.55;2.35;;;17.50;52.90;;;;;;5084090;28;20170;-58
2021/01/29 01:38:39;;;;;;;2.40;2.20;;;17.50;52.90;;;;;;5083479;28;20180;-54
2021/01/29 01:41:05;;;;;;;2.55;2.35;;;17.50;52.90;;;;;;5083469;28;20600;-56
2021/01/29 01:43:31;;;;;;;2.50;2.30;;;17.50;52.90;;;;;;5084009;28;20182;-56
2021/01/29 01:45:57;;;;;;;4.10;2.75;;;17.50;52.90;;;;;;5084067;28;20620;-56
2021/01/29 01:48:40;;;;;;;2.88;2.67;;;17.50;52.90;;;;;;5083788;28;20609;-56
2021/01/29 01:51:06;;;;;;;3.10;2.70;;;17.50;52.90;;;;;;5066799;28;20259;-51
2021/01/29 01:53:40;;;;;;;3.67;2.75;;;17.50;52.90;;;;;;5065856;28;20973;-53
2021/01/29 01:56:10;;;;;;;2.97;2.67;;;17.50;52.90;;;;;;5065855;28;20165;-50
2021/01/29 01:58:35;;;;;;;3.22;2.90;;;17.40;52.90;;;;;;5065990;28;20189;-53
2021/01/29 02:01:01;;;;;;;2.75;2.55;;;17.40;52.90;;;;;;5069357;28;20170;-56
2021/01/29 02:03:29;;;;;;;2.92;2.70;;;17.40;52.90;;;;;;5069573;28;20177;-55
2021/01/29 02:05:55;;;;;;;3.08;2.83;;;17.40;52.90;;;;;;5069507;28;20174;-52
2021/01/29 02:08:20;;;;;;;2.75;2.55;;;17.40;52.90;;;;;;5069110;28;20181;-52
2021/01/29 02:10:46;;;;;;;3.10;2.80;;;17.40;52.90;;;;;;5087544;28;20206;-53
2021/01/29 02:13:12;;;;;;;2.80;2.60;;;17.40;52.80;;;;;;5069023;28;20643;-54
2021/01/29 02:15:40;;;;;;;3.20;2.90;;;17.40;52.90;;;;;;5087113;28;20182;-53
2021/01/29 02:18:20;;;;;;;2.70;2.38;;;17.30;52.80;;;;;;5069136;28;20174;-54
2021/01/29 02:21:25;;;;;;;2.88;2.67;;;17.30;52.80;;;;;;5086971;28;20170;-54
2021/01/29 02:24:15;;;;;;;2.67;2.47;;;17.30;52.90;;;;;;5071002;28;20242;-52
2021/01/29 02:27:05;;;;;;;2.88;2.67;;;17.30;52.80;;;;;;5086880;28;20227;-50
2021/01/29 02:29:42;;;;;;;4.13;2.90;;;17.40;52.90;;;;;;5086632;28;20186;-53
2021/01/29 02:32:23;;;;;;;2.78;2.58;;;17.30;52.90;;;;;;5068813;28;20186;-53
2021/01/29 02:35:22;;;;;;;3.08;2.88;;;17.30;52.80;;;;;;5086852;28;20178;-50
2021/01/29 02:38:24;;;;;;;3.47;2.67;;;17.30;52.90;;;;;;5086812;28;20174;-51
2021/01/29 02:41:06;;;;;;;3.67;3.35;;;17.30;52.90;;;;;;5086271;28;20173;-52
2021/01/29 02:43:56;;;;;;;3.53;3.22;;;17.30;52.90;;;;;;5068642;28;20264;-56
2021/01/29 02:46:41;;;;;;;3.28;3.00;;;17.30;52.90;;;;;;5086379;28;20170;-53
2021/01/29 02:49:21;;;;;;;3.45;3.15;;;17.30;52.90;;;;;;5069389;28;20178;-55
2021/01/29 02:52:02;;;;;;;2.97;2.67;;;17.20;52.80;;;;;;5068421;28;20181;-56
2021/01/29 02:54:53;;;;;;;3.42;3.13;;;17.20;52.80;;;;;;5067853;28;21036;-50
2021/01/29 02:57:22;;;;;;;3.60;3.28;;;17.20;52.80;;;;;;5068280;28;20216;-50
2021/01/29 03:00:08;;;;;;;4.07;3.75;;;17.20;52.80;;;;;;5086362;28;20174;-53
2021/01/29 03:02:44;;;;;;;3.35;3.05;;;17.20;52.80;;;;;;5068566;28;20647;-53
2021/01/29 03:05:15;;;;;;;3.35;3.05;;;17.20;52.90;;;;;;5069467;28;20170;-54
2021/01/29 03:07:59;;;;;;;3.70;3.40;;;17.20;52.90;;;;;;5067850;28;20182;-48
2021/01/29 03:11:13;;;;;;;3.53;3.22;;;17.20;52.90;;;;;;5068040;28;20193;-52
2021/01/29 03:14:15;;;;;;;3.47;3.17;;;17.10;52.80;;;;;;4987958;28;20409;-48
2021/01/29 03:16:52;;;;;;;3.35;3.05;;;17.20;52.80;;;;;;5067732;28;20192;-53
2021/01/29 03:19:53;;;;;;;4.28;3.60;;;17.10;52.80;;;;;;5085900;28;20177;-54
2021/01/29 03:22:22;;;;;;;3.92;3.58;;;17.10;52.80;;;;;;5070629;28;20204;-55
2021/01/29 03:24:51;;;;;;;3.67;3.38;;;17.10;52.80;;;;;;5067994;28;20360;-51
2021/01/29 03:27:24;;;;;;;3.80;3.40;;;17.10;52.80;;;;;;5085408;28;20174;-50
2021/01/29 03:29:55;;;;;;;4.13;3.72;;;17.10;52.80;;;;;;5067377;28;20565;-52
2021/01/29 03:32:20;;;;;;;3.78;3.47;;;17.10;52.80;;;;;;5067699;28;20223;-54
2021/01/29 03:35:03;;;;;;;3.60;3.30;;;17.10;52.80;;;;;;5067687;28;20169;-53
2021/01/29 03:38:27;;;;;;;3.60;3.30;;;17.10;52.80;;;;;;5085454;28;20181;-50
2021/01/29 03:41:25;;;;;;;3.70;3.40;;;17.10;52.80;;;;;;4995238;28;20550;-50
2021/01/29 03:43:54;;;;;;;3.88;3.47;;;17.10;52.80;;;;;;5040274;28;20189;-52
2021/01/29 03:46:41;;;;;;;3.88;3.58;;;17.10;52.80;;;;;;5085149;28;20185;-52
2021/01/29 03:49:32;;;;;;;3.90;3.60;;;17.00;52.80;;;;;;5070009;28;20667;-48
2021/01/29 03:52:28;;;;;;;4.10;3.70;;;17.00;52.80;;;;;;5085310;28;20267;-50
2021/01/29 03:55:17;;;;;;;4.22;3.78;;;17.10;52.90;;;;;;5085726;28;20700;-55
2021/01/29 03:57:52;;;;;;;4.15;3.75;;;17.00;52.80;;;;;;5084945;28;20593;-56
2021/01/29 04:00:44;;;;;;;3.67;3.38;;;17.00;52.80;;;;;;5067948;28;20173;-55
2021/01/29 04:03:52;;;;;;;3.80;3.13;;;17.00;52.80;;;;;;5067005;28;20216;-52
2021/01/29 04:06:26;;;;;;;4.03;3.72;;;17.00;52.90;;;;;;5066873;28;20204;-52
2021/01/29 04:08:59;;;;;;;3.70;3.40;;;17.00;52.90;;;;;;5066960;28;20173;-53
2021/01/29 04:11:31;;;;;;;3.60;3.30;;;17.00;52.90;;;;;;5084188;28;20274;-52
2021/01/29 04:14:00;;;;;;;3.83;3.53;;;17.00;52.90;;;;;;5067067;28;20214;-55
2021/01/29 04:16:41;;;;;;;3.63;3.28;;;17.00;52.90;;;;;;5066689;28;20227;-56
2021/01/29 04:19:21;;;;;;;3.67;3.38;;;16.90;52.80;;;;;;5067065;28;20619;-54
2021/01/29 04:22:00;;;;;;;3.60;3.30;;;16.90;52.80;;;;;;5066685;28;20180;-49
2021/01/29 04:24:30;;;;;;;3.75;3.45;;;17.00;52.90;;;;;;5066265;28;20173;-51
2021/01/29 04:27:11;;;;;;;4.13;3.72;;;16.90;52.90;;;;;;5066940;28;20247;-54
2021/01/29 04:29:44;;;;;;;3.70;3.40;;;17.00;52.90;;;;;;5066511;28;20190;-48
2021/01/29 04:32:12;;;;;;;3.80;3.50;;;16.90;52.90;;;;;;5066838;28;20182;-51
2021/01/29 04:34:39;;;;;;;3.40;3.10;;;16.90;52.90;;;;;;5066478;28;20178;-51
2021/01/29 04:37:09;;;;;;;3.45;3.15;;;16.90;52.90;;;;;;5066746;28;20173;-50
2021/01/29 04:39:40;;;;;;;3.85;3.53;;;16.90;52.90;;;;;;5066509;28;20182;-57
2021/01/29 04:42:24;;;;;;;3.83;3.53;;;16.90;52.90;;;;;;5066514;28;20200;-55
2021/01/29 04:45:17;;;;;;;3.80;3.50;;;16.90;52.90;;;;;;5084476;28;20173;-53
2021/01/29 04:47:46;;;;;;;3.50;3.20;;;16.90;52.90;;;;;;5066354;28;20285;-49
2021/01/29 04:50:15;;;;;;;3.17;2.97;;;16.90;52.90;;;;;;5066128;28;20202;-52
2021/01/29 04:53:00;;;;;;;3.58;3.28;;;16.90;52.90;;;;;;5066499;28;20231;-49
2021/01/29 04:56:03;;;;;;;3.85;3.55;;;16.90;52.90;;;;;;5066292;28;20165;-50
2021/01/29 04:58:29;;;;;;;3.78;3.47;;;16.90;52.90;;;;;;5084239;28;20623;-50
2021/01/29 05:01:35;;;;;;;4.05;3.67;;;16.90;52.90;;;;;;5065806;28;20231;-49
2021/01/29 05:04:04;;;;;;;3.92;3.55;;;16.90;52.90;;;;;;5066587;28;20699;-55
2021/01/29 05:06:54;;;;;;;3.45;3.13;;;16.80;52.90;;;;;;5084126;28;20643;-50
2021/01/29 05:09:46;;;;;;;3.45;3.15;;;16.80;52.90;;;;;;5084489;28;20248;-54
2021/01/29 05:13:05;;;;;;;3.20;3.00;;;16.80;52.90;;;;;;5083639;28;20569;-50
2021/01/29 05:15:36;;;;;;;3.80;3.50;;;16.80;52.90;;;;;;5002116;28;20347;-49
2021/01/29 05:18:28;;;;;;;3.15;2.95;;;16.80;52.90;;;;;;5001796;28;20187;-51
2021/01/29 05:21:05;;;;;;;3.42;3.13;;;16.90;52.90;;;;;;5050907;28;20194;-50
2021/01/29 05:24:08;;;;;;;3.83;3.45;;;16.80;52.90;;;;;;5083966;28;20169;-51
2021/01/29 05:26:50;;;;;;;3.60;3.33;;;16.80;53.00;;;;;;5083847;28;20181;-54
2021/01/29 05:29:57;;;;;;;4.18;3.78;;;16.80;52.90;;;;;;5065566;28;20949;-51
2021/01/29 05:32:26;;;;;;;3.90;3.53;;;16.80;53.00;;;;;;5056407;28;20647;-57
2021/01/29 05:34:58;;;;;;;3.30;3.00;;;16.80;53.00;;;;;;5067442;28;20548;-48
2021/01/29 05:37:44;;;;;;;3.38;3.08;;;16.70;52.90;;;;;;5087886;28;20169;-57
2021/01/29 05:40:21;;;;;;;3.85;3.55;;;16.80;53.00;;;;;;5087761;28;20252;-56
2021/01/29 05:42:50;;;;;;;3.22;3.03;;;16.70;52.90;;;;;;5070711;28;20184;-51
2021/01/29 05:45:31;;;;;;;3.50;3.30;;;16.70;53.00;;;;;;5087402;28;20174;-54
2021/01/29 05:48:18;;;;;;;3.10;2.85;;;16.70;53.00;;;;;;5069595;28;20205;-55
2021/01/29 05:51:14;;;;;;;3.00;2.80;;;16.70;53.00;;;;;;5087482;28;20212;-53
2021/01/29 05:54:06;;;;;;;2.97;2.78;;;16.70;53.00;;;;;;5044636;28;20944;-49
2021/01/29 05:56:34;;;;;;;3.22;3.03;;;16.70;53.00;;;;;;5070009;28;20174;-53
2021/01/29 05:59:21;;;;;;;3.30;2.90;;;16.70;53.00;;;;;;5087495;28;20205;-52
2021/01/29 06:02:10;;;;;;;3.15;2.92;;;16.70;53.00;;;;;;5070704;28;20166;-52
2021/01/29 06:04:48;;;;;;;3.15;2.90;;;16.70;53.10;;;;;;5072290;28;20166;-57
2021/01/29 06:07:24;;;;;;;3.80;3.10;;;16.70;53.10;;;;;;5087199;28;20248;-52
2021/01/29 06:10:02;;;;;;;3.55;3.25;;;16.80;53.10;;;;;;5069317;28;20286;-54
2021/01/29 06:12:48;;;;;;;2.95;2.75;;;16.90;53.20;;;;;;5087011;28;20292;-54
2021/01/29 06:15:32;;;;;;;2.97;2.72;;;16.90;53.20;;;;;;5069800;28;20182;-53
2021/01/29 06:18:17;;;;;;;2.88;2.67;;;17.10;52.90;;;;;;5068860;28;20247;-49
2021/01/29 06:21:06;;;;;;;2.60;2.40;;;17.30;52.90;;;;;;5087271;28;20170;-55
2021/01/29 06:24:09;;;;;;;2.90;2.65;;;17.40;52.60;;;;;;5086932;28;20173;-56
2021/01/29 06:27:16;;;;;;;2.70;2.50;;;17.60;52.50;;;;;;5087128;28;20172;-54
2021/01/29 06:30:04;;;;;;;2.50;2.30;;;17.70;52.30;;;;;;5086993;28;20280;-49
2021/01/29 06:32:54;;;;;;;2.72;2.53;;;17.80;52.10;;;;;;5068916;28;20616;-52
2021/01/29 06:35:35;;;;;;;2.47;2.22;;;17.80;52.00;;;;;;5086834;28;20170;-47
2021/01/29 06:38:19;;;;;;;2.55;2.35;;;18.00;51.90;;;;;;5086651;28;20177;-52
2021/01/29 06:41:08;;;;;;;2.65;2.45;;;18.00;51.60;;;;;;5086524;28;20290;-57
2021/01/29 06:44:02;;;;;;;2.10;2.00;;;18.20;51.50;;;;;;5087025;28;20572;-58
2021/01/29 06:46:43;;;;;;;2.40;2.20;;;18.20;51.30;;;;;;5067652;28;20177;-57
2021/01/29 06:49:46;;;;;;;2.60;2.40;;;18.30;51.30;;;;;;5068551;28;20172;-58
2021/01/29 06:52:41;;;;;;;2.40;2.20;;;18.30;51.20;;;;;;5086719;28;20182;-55
2021/01/29 06:55:25;;;;;;;2.05;1.95;;;18.30;51.10;;;;;;5068461;28;20174;-53
2021/01/29 06:58:07;;;;;;;2.60;2.40;;;18.30;51.20;;;;;;5086190;28;20209;-53
2021/01/29 07:00:35;;;;;;;2.28;2.08;;;18.30;51.30;;;;;;5068294;28;20166;-57
2021/01/29 07:03:12;;;;;;;2.50;2.30;;;18.20;51.50;;;;;;5086338;28;20174;-53
2021/01/29 07:05:40;;;;;;;2.28;2.17;;;18.20;51.50;;;;;;5068496;28;20627;-49
2021/01/29 07:08:19;;;;;;;2.00;1.90;;;18.10;51.60;;;;;;5068168;28;20623;-53
2021/01/29 07:11:23;;;;;;;2.00;1.90;;;18.00;51.80;;;;;;5068017;28;20262;-55
2021/01/29 07:14:00;;;;;;;2.10;2.00;;;17.90;51.90;;;;;;5085891;28;20642;-50
2021/01/29 07:16:53;;;;;;;1.95;1.85;;;17.90;52.00;;;;;;5068121;28;20578;-58
2021/01/29 07:19:38;;;;;;;2.13;1.83;;;17.80;52.10;;;;;;5067967;28;20627;-55
2021/01/29 07:22:13;;;;;;;2.20;2.00;;;17.70;52.20;;;;;;5069305;28;20464;-58
2021/01/29 07:24:53;;;;;;;2.13;2.00;;;17.70;52.40;;;;;;5068085;28;20177;-56
2021/01/29 07:27:33;;;;;;;2.10;1.90;;;17.60;52.40;;;;;;5067662;28;20662;-51
2021/01/29 07:30:14;;;;;;;2.17;2.00;;;17.60;52.50;;;;;;5069082;28;20288;-54
2021/01/29 07:33:02;;;;;;;1.80;1.70;;;17.50;52.60;;;;;;5085793;28;20277;-52
2021/01/29 07:35:38;;;;;;;1.95;1.85;;;17.50;52.70;;;;;;5067476;28;20619;-58
2021/01/29 07:38:25;;;;;;;1.80;1.70;;;17.40;52.70;;;;;;5067539;28;20200;-55
2021/01/29 07:41:08;;;;;;;1.77;1.67;;;17.40;52.70;;;;;;5067405;28;20189;-55
2021/01/29 07:43:53;;;;;;;1.98;1.88;;;17.40;52.80;;;;;;5085555;28;20177;-56
2021/01/29 07:46:25;;;;;;;2.17;1.98;;;17.40;52.80;;;;;;5067182;28;20178;-56
2021/01/29 07:48:50;;;;;;;1.50;1.38;;;17.50;52.80;;;;;;5085316;28;20728;-56
2021/01/29 07:51:52;;;;;;;1.60;1.50;;;17.50;52.80;;;;;;5085066;28;20198;-54
2021/01/29 07:54:21;;;;;;;1.80;1.70;;;17.50;52.80;;;;;;5085085;28;20180;-61
2021/01/29 07:57:19;;;;;;;2.30;1.67;;;17.40;52.80;;;;;;5085272;28;20174;-59
2021/01/29 08:00:20;;;;;;;2.38;1.80;;;17.40;53.10;;;;;;5066993;28;20174;-60
2021/01/29 08:03:04;;;;;;;1.73;1.63;;;17.40;53.40;;;;;;5066813;28;20227;-59
2021/01/29 08:05:31;;;;;;;1.92;1.77;;;17.40;53.50;;;;;;5085206;28;21007;-60
2021/01/29 08:08:05;;;;;;;2.30;1.70;;;17.30;53.50;;;;;;5067161;28;20173;-61
2021/01/29 08:10:36;;;;;;;3.00;1.88;;;17.30;53.60;;;;;;5067327;28;20208;-61
2021/01/29 08:13:22;;;;;;;2.28;1.83;;;17.30;53.70;;;;;;5066671;28;20178;-62
2021/01/29 08:15:47;;;;;;;2.58;1.48;;;17.30;53.70;;;;;;5069770;28;20170;-61
2021/01/29 08:18:45;;;;;;;2.22;1.75;;;17.30;53.70;;;;;;5084957;28;20181;-61
2021/01/29 08:21:32;;;;;;;1.85;1.55;;;17.40;53.80;;;;;;5066436;28;20169;-60
2021/01/29 08:24:01;;;;;;;2.45;1.88;;;17.30;53.80;;;;;;5084665;28;20955;-61
2021/01/29 08:27:01;;;;;;;2.22;1.63;;;17.30;53.80;;;;;;5084166;28;20185;-62
2021/01/29 08:29:52;;;;;;;1.50;1.40;;;17.30;54.00;;;;;;5084530;28;20654;-60
2021/01/29 08:32:29;;;;;;;2.22;2.03;;;17.20;54.00;;;;;;5046470;28;20198;-60
2021/01/29 08:34:58;;;;;;;4.20;1.75;;;17.20;54.10;;;;;;5066319;28;20200;-63
2021/01/29 08:37:46;;;;;;;2.08;1.50;;;17.20;54.20;;;;;;5084731;28;20248;-60
2021/01/29 08:40:22;;;;;;;1.50;1.40;;;17.30;54.30;;;;;;5066284;28;20177;-60
2021/01/29 08:42:59;;;;;;;2.88;1.80;;;17.20;54.30;;;;;;5066277;28;20181;-61
2021/01/29 08:45:51;;;;;;;2.00;1.80;;;17.20;54.40;;;;;;5084061;28;20277;-61
2021/01/29 08:48:54;;;;;;;1.50;1.40;;;17.20;54.20;;;;;;5066904;28;20178;-60
2021/01/29 08:51:46;;;;;;;2.08;1.58;;;17.20;54.20;;;;;;5083955;28;20708;-60
2021/01/29 08:54:17;;;;;;;1.90;1.50;;;17.20;54.30;;;;;;5079889;28;20196;-57
2021/01/29 08:56:50;;;;;;;1.67;1.58;;;17.20;54.30;;;;;;5084020;28;20859;-64
2021/01/29 08:59:17;;;;;;;1.55;1.40;;;17.20;54.60;;;;;;5066936;28;20619;-61
2021/01/29 09:01:46;;;;;;;1.80;1.48;;;17.20;54.60;;;;;;5066129;28;20184;-62
2021/01/29 09:04:26;;;;;;;4.38;1.52;;;17.20;54.60;;;;;;5084268;28;20272;-63
2021/01/29 09:06:53;;;;;;;2.58;1.50;;;17.20;54.60;;;;;;5065182;28;20182;-61
2021/01/29 09:09:23;;;;;;;1.83;1.58;;;17.20;54.80;;;;;;5065923;28;20234;-63
2021/01/29 09:11:50;;;;;;;1.50;1.40;;;17.20;54.90;;;;;;5069274;28;20213;-60
2021/01/29 09:14:26;;;;;;;1.38;1.27;;;17.30;54.90;;;;;;5066561;28;20632;-61
2021/01/29 09:17:02;;;;;;;1.77;1.30;;;17.30;54.70;;;;;;5070089;28;20173;-63
2021/01/29 09:19:28;;;;;;;2.13;1.23;;;17.30;54.70;;;;;;5068824;28;20165;-60
2021/01/29 09:22:19;;;;;;;1.52;1.40;;;17.30;54.60;;;;;;5069160;28;20174;-61
2021/01/29 09:24:58;;;;;;;3.58;1.40;;;17.30;54.60;;;;;;5084492;28;20548;-60
2021/01/29 09:27:26;;;;;;;1.63;1.20;;;17.30;54.60;;;;;;5068760;28;20185;-62
2021/01/29 09:29:55;;;;;;;1.25;1.15;;;17.30;54.70;;;;;;5086917;28;20276;-61
2021/01/29 09:33:00;;;;;;;1.38;1.02;;;17.30;54.60;;;;;;5069887;28;20188;-62
2021/01/29 09:35:40;;;;;;;1.85;1.10;;;17.30;54.80;;;;;;5070298;28;20174;-62
2021/01/29 09:38:11;;;;;;;1.20;1.10;;;17.30;54.80;;;;;;5069722;28;20173;-64
2021/01/29 09:40:52;;;;;;;1.20;1.10;;;17.40;54.80;;;;;;5069799;28;20201;-64
2021/01/29 09:43:25;;;;;;;1.30;0.90;;;17.40;54.70;;;;;;5087559;28;20173;-63
2021/01/29 09:45:53;;;;;;;1.75;1.13;;;17.40;54.70;;;;;;5069866;28;20255;-63
2021/01/29 09:48:18;;;;;;;1.77;1.13;;;17.40;54.70;;;;;;5087599;28;20193;-62
2021/01/29 09:50:44;;;;;;;1.38;1.10;;;17.40;54.70;;;;;;5069344;28;20335;-62
2021/01/29 09:53:21;;;;;;;1.17;1.08;;;17.40;54.80;;;;;;5069372;28;20186;-60
2021/01/29 09:55:51;;;;;;;2.60;1.25;;;17.30;54.90;;;;;;5070189;28;20170;-63
2021/01/29 09:58:28;;;;;;;3.28;1.50;;;17.30;55.20;;;;;;5069204;28;20216;-62
2021/01/29 10:01:16;;;;;;;2.58;1.27;;;17.30;55.70;;;;;;5087437;28;20588;-61
2021/01/29 10:03:54;;;;;;;3.88;1.67;;;17.30;55.20;;;;;;5069578;28;20177;-62
2021/01/29 10:06:25;;;;;;;6.93;1.10;;;17.30;55.00;;;;;;5087405;28;20169;-62
2021/01/29 10:08:58;;;;;;;2.55;1.40;;;17.40;55.00;;;;;;5069352;28;20177;-62
2021/01/29 10:11:40;;;;;;;1.63;1.05;;;17.40;54.90;;;;;;5068693;28;20212;-63
2021/01/29 10:14:30;;;;;;;2.30;1.30;;;17.40;54.90;;;;;;5086974;28;20169;-63
2021/01/29 10:16:57;;;;;;;2.78;1.20;;;17.40;55.00;;;;;;5059370;28;20208;-62
2021/01/29 10:19:32;;;;;;;2.50;1.48;;;17.40;54.90;;;;;;5086866;28;20505;-61
2021/01/29 10:21:58;;;;;;;3.92;1.42;;;17.40;55.00;;;;;;5086741;28;20267;-64
2021/01/29 10:24:48;;;;;;;3.72;1.85;;;17.30;55.10;;;;;;5086941;28;20283;-61
2021/01/29 10:27:32;;;;;;;2.20;1.40;;;17.30;55.00;;;;;;5086764;28;20174;-61
2021/01/29 10:30:02;;;;;;;3.72;1.58;;;17.30;55.10;;;;;;5085853;28;20321;-61
2021/01/29 10:32:30;;;;;;;5.47;2.38;;;17.30;55.10;;;;;;5068520;28;20173;-62
2021/01/29 10:35:05;;;;;;;2.88;1.50;;;17.30;55.10;;;;;;5067850;28;20197;-61
2021/01/29 10:37:36;;;;;;;2.45;1.52;;;17.40;55.00;;;;;;5066281;28;20184;-64
2021/01/29 10:40:16;;;;;;;2.33;1.58;;;17.40;55.00;;;;;;5065352;28;20182;-64
2021/01/29 10:42:56;;;;;;;2.92;1.55;;;17.40;54.90;;;;;;5066849;28;20177;-62
2021/01/29 10:46:08;;;;;;;5.05;2.05;;;17.40;54.90;;;;;;5067954;28;20888;-62
2021/01/29 10:49:05;;;;;;;3.13;1.65;;;17.40;54.90;;;;;;5039967;28;20185;-62
2021/01/29 10:51:35;;;;;;;3.03;1.45;;;17.40;54.90;;;;;;5066425;28;20274;-62
2021/01/29 10:54:02;;;;;;;2.85;1.70;;;17.40;54.90;;;;;;5068577;28;20188;-61
2021/01/29 10:57:02;;;;;;;3.22;1.70;;;17.40;55.00;;;;;;5052177;28;20166;-63
2021/01/29 10:59:34;;;;;;;3.63;1.50;;;17.40;54.90;;;;;;5053985;28;20772;-63
2021/01/29 11:02:03;;;;;;;3.85;1.70;;;17.50;54.80;;;;;;5068182;28;20170;-62
2021/01/29 11:04:44;;;;;;;3.78;1.83;;;17.50;54.80;;;;;;5051563;28;20988;-64
2021/01/29 11:07:22;;;;;;;4.38;1.60;;;17.50;54.70;;;;;;5052624;28;20177;-63
2021/01/29 11:09:59;;;;;;;3.63;1.50;;;17.60;54.70;;;;;;5067937;28;20170;-61
2021/01/29 11:12:26;;;;;;;4.10;1.90;;;17.50;54.70;;;;;;5052171;28;20174;-62
2021/01/29 11:14:54;;;;;;;3.83;1.75;;;17.50;54.70;;;;;;5067997;28;20174;-61
2021/01/29 11:17:24;;;;;;;3.72;1.60;;;17.50;54.80;;;;;;5086407;28;20177;-61
2021/01/29 11:19:51;;;;;;;4.88;2.30;;;17.50;54.90;;;;;;5068226;28;20560;-62
2021/01/29 11:22:28;;;;;;;5.22;1.63;;;17.50;54.80;;;;;;5067765;28;20274;-62
2021/01/29 11:25:23;;;;;;;4.20;1.80;;;17.40;54.80;;;;;;5068347;28;20664;-60
2021/01/29 11:27:59;;;;;;;4.18;1.80;;;17.40;55.00;;;;;;5067580;28;20190;-62
2021/01/29 11:30:29;;;;;;;3.78;1.52;;;17.40;55.00;;;;;;5067555;28;20264;-63
2021/01/29 11:33:00;;;;;;;7.60;2.40;;;17.40;55.10;;;;;;5050270;28;21133;-59
2021/01/29 11:35:46;;;;;;;4.82;1.88;;;17.50;55.30;;;;;;5085886;28;20162;-62
2021/01/29 11:38:33;;;;;;;5.07;1.70;;;17.50;55.00;;;;;;5066917;28;20184;-63
2021/01/29 11:41:19;;;;;;;6.13;1.92;;;17.60;54.90;;;;;;5067376;28;20662;-62
2021/01/29 11:43:51;;;;;;;4.55;2.00;;;17.70;54.70;;;;;;5067627;28;20190;-63
2021/01/29 11:46:28;;;;;;;3.72;1.95;;;17.90;54.50;;;;;;5067378;28;20162;-62
2021/01/29 11:49:03;;;;;;;4.18;1.95;;;18.10;54.10;;;;;;5050483;28;20189;-62
2021/01/29 11:51:36;;;;;;;2.72;1.55;;;18.40;53.70;;;;;;5068116;28;21061;-63
2021/01/29 11:54:09;;;;;;;6.50;1.88;;;18.80;53.10;;;;;;5051241;28;20181;-62
2021/01/29 11:56:58;;;;;;;4.03;2.33;;;19.10;52.60;;;;;;5051393;28;20188;-61
2021/01/29 11:59:30;;;;;;;3.45;1.70;;;19.40;51.90;;;;;;5052455;28;20260;-61
2021/01/29 12:02:10;;;;;;;5.43;1.75;;;19.60;51.50;;;;;;5085396;28;20177;-62
2021/01/29 12:04:58;;;;;;;5.10;1.55;;;19.80;51.20;;;;;;5085020;28;20180;-64
2021/01/29 12:07:59;;;;;;;6.20;2.25;;;20.00;51.10;;;;;;5066845;28;20181;-62
2021/01/29 12:10:33;;;;;;;5.88;1.90;;;20.10;50.90;;;;;;5084634;28;20562;-63
2021/01/29 12:13:16;;;;;;;3.95;1.70;;;20.20;50.80;;;;;;5050480;28;20264;-61
2021/01/29 12:15:46;;;;;;;5.63;2.20;;;20.20;50.80;;;;;;5050537;28;20627;-62
2021/01/29 12:18:12;;;;;;;4.65;1.85;;;20.20;50.80;;;;;;5050717;28;20177;-62
2021/01/29 12:20:40;;;;;;;5.50;1.95;;;20.20;50.80;;;;;;5066466;28;20955;-63
2021/01/29 12:23:41;;;;;;;5.18;2.13;;;20.10;50.90;;;;;;5066894;28;20199;-61
2021/01/29 12:26:12;;;;;;;4.35;1.88;;;20.20;50.90;;;;;;5085096;28;20371;-62
2021/01/29 12:29:01;;;;;;;4.68;1.90;;;20.10;51.00;;;;;;5066657;28;20276;-61
2021/01/29 12:31:47;;;;;;;4.85;2.40;;;20.10;51.00;;;;;;5065741;28;20209;-62
2021/01/29 12:34:28;;;;;;;6.30;1.70;;;20.10;51.20;;;;;;5066263;28;20180;-62
2021/01/29 12:37:11;;;;;;;3.28;1.65;;;20.00;51.30;;;;;;5067090;28;20169;-61
2021/01/29 12:39:56;;;;;;;5.05;1.95;;;19.90;51.40;;;;;;5050528;28;20177;-63
2021/01/29 12:42:46;;;;;;;3.22;1.92;;;19.90;51.50;;;;;;5067555;28;20653;-63
2021/01/29 12:45:35;;;;;;;4.50;1.65;;;19.90;51.50;;;;;;5054362;28;20185;-62
2021/01/29 12:48:08;;;;;;;5.20;1.77;;;20.00;51.50;;;;;;5066350;28;20285;-64
2021/01/29 12:50:46;;;;;;;4.10;1.90;;;20.00;51.50;;;;;;5066176;28;20201;-62
2021/01/29 12:53:17;;;;;;;6.93;2.30;;;20.00;51.60;;;;;;5066369;28;20178;-61
2021/01/29 12:56:02;;;;;;;3.53;1.67;;;20.00;51.50;;;;;;5066531;28;20178;-61
2021/01/29 12:58:27;;;;;;;4.40;1.85;;;20.00;51.40;;;;;;5066419;28;20192;-63
2021/01/29 13:01:01;;;;;;;5.40;2.03;;;20.00;51.50;;;;;;5065766;28;20639;-61
2021/01/29 13:03:58;;;;;;;4.10;1.60;;;19.90;51.50;;;;;;5065981;28;20178;-62
2021/01/29 13:06:50;;;;;;;5.15;2.00;;;20.00;51.50;;;;;;5044970;28;20186;-60
2021/01/29 13:09:34;;;;;;;3.22;1.83;;;20.00;51.50;;;;;;5083013;28;20697;-61
2021/01/29 13:12:21;;;;;;;5.85;2.00;;;20.00;51.50;;;;;;5066470;28;20209;-62
2021/01/29 13:14:55;;;;;;;5.22;1.85;;;20.00;51.50;;;;;;5083820;28;20192;-62
2021/01/29 13:17:47;;;;;;;4.03;1.70;;;20.10;51.40;;;;;;5065928;28;20182;-63
2021/01/29 13:20:15;;;;;;;5.60;2.03;;;20.00;51.30;;;;;;5079192;28;20193;-63
2021/01/29 13:22:45;;;;;;;4.22;2.00;;;20.00;51.40;;;;;;5048484;28;20296;-64
2021/01/29 13:25:15;;;;;;;3.25;1.85;;;20.00;51.30;;;;;;5094074;28;20183;-60
2021/01/29 13:27:45;;;;;;;3.95;1.52;;;20.10;51.30;;;;;;5055662;28;20271;-61
2021/01/29 13:30:37;;;;;;;4.78;2.00;;;20.10;51.30;;;;;;5065196;28;20242;-61
2021/01/29 13:33:19;;;;;;;4.07;1.85;;;20.10;51.40;;;;;;5092722;28;20181;-60
2021/01/29 13:35:46;;;;;;;3.45;1.90;;;20.00;51.50;;;;;;5063827;28;20178;-62
2021/01/29 13:38:32;;;;;;;3.72;1.65;;;20.00;51.40;;;;;;5029418;28;20946;-62
2021/01/29 13:41:13;;;;;;;4.60;1.70;;;20.00;51.40;;;;;;5058227;28;20172;-64
2021/01/29 13:43:41;;;;;;;6.50;2.25;;;20.00;51.40;;;;;;5104050;28;20173;-63
2021/01/29 13:46:24;;;;;;;4.88;1.70;;;20.00;51.70;;;;;;5086192;28;20165;-63